createdAt,value
2018-08-18T00:00:27.799Z,2.40
2018-08-18T00:02:57.217Z,2.40
2018-08-18T00:05:26.669Z,2.30
2018-08-18T00:07:55.939Z,1.90
2018-08-18T00:10:25.340Z,2.40
2018-08-18T00:12:54.664Z,2.57
2018-08-18T00:15:24.069Z,2.10
2018-08-18T00:17:53.278Z,2.20
2018-08-18T00:20:24.472Z,2.50
2018-08-18T00:22:53.781Z,2.75
2018-08-18T00:25:23.140Z,2.40
2018-08-18T00:27:52.600Z,2.72
2018-08-18T00:30:26.925Z,2.50
2018-08-18T00:32:56.244Z,2.52
2018-08-18T00:35:25.540Z,2.40
2018-08-18T00:37:54.820Z,2.30
2018-08-18T00:40:24.076Z,2.17
2018-08-18T00:42:53.249Z,2.17
2018-08-18T00:45:22.700Z,2.40
2018-08-18T00:47:52.286Z,2.42
2018-08-18T00:50:43.606Z,2.50
2018-08-18T00:53:14.545Z,2.60
2018-08-18T00:55:43.811Z,2.90
2018-08-18T00:58:18.832Z,2.67
2018-08-18T01:01:04.225Z,2.40
2018-08-18T01:03:41.829Z,2.40
2018-08-18T01:06:17.832Z,2.20
2018-08-18T01:08:47.557Z,2.25
2018-08-18T01:11:16.925Z,2.58
2018-08-18T01:13:46.149Z,2.70
2018-08-18T01:16:15.398Z,2.60
2018-08-18T01:18:44.658Z,2.37
2018-08-18T01:21:13.792Z,2.80
2018-08-18T01:23:43.004Z,2.85
2018-08-18T01:26:12.497Z,2.87
2018-08-18T01:28:41.903Z,2.55
2018-08-18T01:31:17.140Z,2.52
2018-08-18T01:33:46.268Z,2.60
2018-08-18T01:36:15.620Z,2.42
2018-08-18T01:38:44.988Z,2.50
2018-08-18T01:41:19.476Z,2.55
2018-08-18T01:43:54.836Z,2.50
2018-08-18T01:46:24.027Z,2.87
2018-08-18T01:48:53.188Z,2.58
2018-08-18T01:51:23.637Z,2.87
2018-08-18T01:53:52.756Z,2.83
2018-08-18T01:56:21.981Z,2.92
2018-08-18T01:58:51.305Z,2.42
2018-08-18T02:01:20.721Z,2.80
2018-08-18T02:03:49.892Z,2.60
2018-08-18T02:06:19.141Z,2.97
2018-08-18T02:09:00.615Z,2.80
2018-08-18T02:11:29.841Z,2.87
2018-08-18T02:13:59.181Z,2.70
2018-08-18T02:16:28.476Z,3.17
2018-08-18T02:18:57.848Z,2.77
2018-08-18T02:21:35.316Z,2.85
2018-08-18T02:24:05.772Z,2.70
2018-08-18T02:26:36.033Z,2.97
2018-08-18T02:29:05.286Z,2.77
2018-08-18T02:31:34.828Z,2.70
2018-08-18T02:34:04.072Z,2.70
2018-08-18T02:36:33.805Z,2.80
2018-08-18T02:39:03.089Z,2.60
2018-08-18T02:41:33.337Z,3.10
2018-08-18T02:44:02.544Z,2.95
2018-08-18T02:46:37.172Z,2.80
2018-08-18T02:49:06.656Z,2.90
2018-08-18T02:51:36.177Z,2.83
2018-08-18T02:54:05.446Z,3.00
2018-08-18T02:56:42.767Z,2.50
2018-08-18T02:59:13.011Z,2.60
2018-08-18T03:01:43.300Z,3.15
2018-08-18T03:04:14.778Z,2.67
2018-08-18T03:06:44.130Z,2.90
2018-08-18T03:09:13.280Z,2.77
2018-08-18T03:11:43.724Z,3.12
2018-08-18T03:14:12.945Z,2.83
2018-08-18T03:16:43.100Z,2.60
2018-08-18T03:19:14.738Z,2.80
2018-08-18T03:21:44.252Z,2.92
2018-08-18T03:24:18.010Z,2.77
2018-08-18T03:26:49.943Z,2.95
2018-08-18T03:29:19.838Z,2.70
2018-08-18T03:31:49.276Z,2.60
2018-08-18T03:34:18.595Z,3.30
2018-08-18T03:36:50.006Z,2.98
2018-08-18T03:39:25.367Z,2.63
2018-08-18T03:41:59.520Z,2.80
2018-08-18T03:44:28.748Z,3.00
2018-08-18T03:46:58.307Z,2.85
2018-08-18T03:49:27.576Z,3.03
2018-08-18T03:51:57.247Z,2.80
2018-08-18T03:54:26.408Z,2.80
2018-08-18T03:56:55.624Z,2.92
2018-08-18T03:59:24.816Z,2.70
2018-08-18T04:01:59.694Z,2.92
2018-08-18T04:04:30.836Z,2.95
2018-08-18T04:07:00.904Z,3.00
2018-08-18T04:09:31.289Z,3.15
2018-08-18T04:12:02.184Z,2.87
2018-08-18T04:14:42.937Z,2.80
2018-08-18T04:17:23.289Z,2.90
2018-08-18T04:19:52.659Z,3.10
2018-08-18T04:22:23.733Z,2.90
2018-08-18T04:24:53.208Z,2.98
2018-08-18T04:27:38.038Z,3.27
2018-08-18T04:30:09.121Z,3.12
2018-08-18T04:33:09.635Z,3.15
2018-08-18T04:35:39.030Z,3.37
2018-08-18T04:38:08.266Z,3.30
2018-08-18T04:40:37.649Z,3.30
2018-08-18T04:43:06.797Z,3.37
2018-08-18T04:45:35.936Z,3.72
2018-08-18T04:48:05.400Z,3.37
2018-08-18T04:50:34.876Z,3.27
2018-08-18T04:53:04.381Z,3.15
2018-08-18T04:55:33.736Z,3.67
2018-08-18T04:58:03.086Z,3.40
2018-08-18T05:00:32.432Z,2.83
2018-08-18T05:03:01.804Z,2.98
2018-08-18T05:05:32.228Z,3.00
2018-08-18T05:08:02.151Z,2.77
2018-08-18T05:10:31.440Z,3.20
2018-08-18T05:13:00.584Z,2.93
2018-08-18T05:15:29.959Z,3.22
2018-08-18T05:17:59.212Z,3.30
2018-08-18T05:20:28.806Z,3.20
2018-08-18T05:23:11.796Z,3.15
2018-08-18T05:25:41.480Z,2.95
2018-08-18T05:28:10.744Z,3.10
2018-08-18T05:30:40.141Z,3.50
2018-08-18T05:33:09.877Z,3.00
2018-08-18T05:35:39.196Z,3.20
2018-08-18T05:38:08.548Z,3.45
2018-08-18T05:40:38.113Z,3.40
2018-08-18T05:43:07.424Z,2.95
2018-08-18T05:45:36.592Z,3.60
2018-08-18T05:48:05.988Z,3.45
2018-08-18T05:50:36.240Z,3.53
2018-08-18T05:53:15.393Z,3.42
2018-08-18T05:55:44.592Z,3.50
2018-08-18T05:58:14.032Z,3.15
2018-08-18T06:00:43.422Z,3.70
2018-08-18T06:03:16.385Z,3.70
2018-08-18T06:05:45.724Z,3.52
2018-08-18T06:08:15.201Z,3.50
2018-08-18T06:10:44.600Z,3.27
2018-08-18T06:13:18.916Z,3.90
2018-08-18T06:16:05.562Z,3.67
2018-08-18T06:18:35.842Z,3.17
2018-08-18T06:21:05.566Z,3.45
2018-08-18T06:23:34.926Z,3.50
2018-08-18T06:26:04.355Z,3.95
2018-08-18T06:28:34.117Z,3.47
2018-08-18T06:31:03.497Z,3.47
2018-08-18T06:33:32.898Z,3.92
2018-08-18T06:36:02.637Z,3.50
2018-08-18T06:38:31.836Z,3.17
2018-08-18T06:41:02.229Z,3.62
2018-08-18T06:43:33.596Z,3.65
2018-08-18T06:46:03.146Z,3.50
2018-08-18T06:48:35.068Z,3.62
2018-08-18T06:51:04.376Z,3.65
2018-08-18T06:53:38.695Z,3.60
2018-08-18T06:56:08.193Z,3.58
2018-08-18T06:58:37.739Z,3.70
2018-08-18T07:01:07.270Z,3.15
2018-08-18T07:03:38.593Z,3.30
2018-08-18T07:06:10.074Z,3.30
2018-08-18T07:08:44.360Z,3.05
2018-08-18T07:11:13.684Z,3.50
2018-08-18T07:13:43.511Z,3.20
2018-08-18T07:16:13.615Z,3.50
2018-08-18T07:18:43.056Z,3.35
2018-08-18T07:21:12.320Z,3.40
2018-08-18T07:23:41.598Z,3.08
2018-08-18T07:26:10.732Z,3.00
2018-08-18T07:28:39.896Z,2.80
2018-08-18T07:31:09.248Z,3.10
2018-08-18T07:33:38.538Z,2.83
2018-08-18T07:36:07.900Z,2.95
2018-08-18T07:38:37.144Z,2.80
2018-08-18T07:41:06.608Z,2.95
2018-08-18T07:43:35.839Z,2.50
2018-08-18T07:46:06.636Z,2.50
2018-08-18T07:48:36.132Z,2.50
2018-08-18T07:51:05.464Z,2.58
2018-08-18T07:53:34.787Z,2.67
2018-08-18T07:56:04.017Z,2.90
2018-08-18T07:58:33.567Z,2.40
2018-08-18T08:01:02.732Z,2.50
2018-08-18T08:03:32.225Z,2.72
2018-08-18T08:06:01.559Z,2.40
2018-08-18T08:09:01.497Z,2.50
2018-08-18T08:11:30.905Z,2.80
2018-08-18T08:14:00.081Z,2.33
2018-08-18T08:16:29.262Z,2.15
2018-08-18T08:18:58.744Z,2.37
2018-08-18T08:21:28.279Z,2.20
2018-08-18T08:23:57.681Z,2.08
2018-08-18T08:26:26.968Z,2.00
2018-08-18T08:28:56.414Z,1.87
2018-08-18T08:31:25.732Z,2.08
2018-08-18T08:33:54.920Z,2.10
2018-08-18T08:36:24.449Z,1.95
2018-08-18T08:38:58.176Z,2.00
2018-08-18T08:41:28.577Z,1.90
2018-08-18T08:43:57.898Z,1.90
2018-08-18T08:46:27.336Z,1.80
2018-08-18T08:49:00.845Z,2.02
2018-08-18T08:51:30.366Z,2.10
2018-08-18T08:54:00.426Z,2.10
2018-08-18T08:56:34.929Z,2.08
2018-08-18T08:59:04.652Z,1.87
2018-08-18T09:01:34.112Z,2.05
2018-08-18T09:04:03.812Z,1.80
2018-08-18T09:06:33.799Z,1.75
2018-08-18T09:09:03.301Z,1.70
2018-08-18T09:11:32.568Z,1.80
2018-08-18T09:14:05.726Z,1.55
2018-08-18T09:16:35.176Z,1.52
2018-08-18T09:19:04.328Z,1.40
2018-08-18T09:21:43.952Z,1.37
2018-08-18T09:24:13.464Z,1.27
2018-08-18T09:26:47.796Z,1.30
2018-08-18T09:29:17.201Z,1.40
2018-08-18T09:31:46.828Z,1.40
2018-08-18T09:34:16.432Z,1.27
2018-08-18T09:36:46.534Z,1.47
2018-08-18T09:39:24.987Z,1.40
2018-08-18T09:41:54.196Z,1.60
2018-08-18T09:44:28.546Z,1.80
2018-08-18T09:46:58.109Z,1.47
2018-08-18T09:49:28.089Z,1.40
2018-08-18T09:51:57.597Z,1.52
2018-08-18T09:54:27.488Z,1.42
2018-08-18T09:56:57.397Z,1.50
2018-08-18T09:59:27.533Z,1.55
2018-08-18T10:01:56.972Z,1.40
2018-08-18T10:04:26.229Z,1.60
2018-08-18T10:06:56.024Z,1.40
2018-08-18T10:09:25.555Z,1.50
2018-08-18T10:11:55.110Z,1.42
2018-08-18T10:14:24.337Z,1.37
2018-08-18T10:16:53.844Z,1.65
2018-08-18T10:19:23.469Z,1.40
2018-08-18T10:21:52.852Z,1.62
2018-08-18T10:24:22.095Z,1.60
2018-08-18T10:26:56.283Z,1.30
2018-08-18T10:29:26.328Z,1.50
2018-08-18T10:31:56.730Z,1.57
2018-08-18T10:34:30.156Z,1.70
2018-08-18T10:37:05.520Z,1.50
2018-08-18T10:39:35.312Z,1.40
2018-08-18T10:42:15.162Z,1.60
2018-08-18T10:44:50.386Z,1.40
2018-08-18T10:47:21.853Z,1.32
2018-08-18T10:50:02.421Z,1.27
2018-08-18T10:52:43.176Z,1.77
2018-08-18T10:55:13.591Z,1.30
2018-08-18T10:57:54.405Z,1.40
2018-08-18T11:00:25.739Z,1.52
2018-08-18T11:02:56.129Z,1.50
2018-08-18T11:05:26.140Z,1.42
2018-08-18T11:08:01.159Z,1.30
2018-08-18T11:10:32.008Z,1.50
2018-08-18T11:13:01.581Z,1.60
2018-08-18T11:15:30.696Z,1.52
2018-08-18T11:18:00.454Z,1.67
2018-08-18T11:20:30.980Z,1.30
2018-08-18T11:23:03.016Z,1.30
2018-08-18T11:25:44.082Z,1.20
2018-08-18T11:28:14.008Z,1.40
2018-08-18T11:30:43.404Z,1.40
2018-08-18T11:33:18.158Z,1.35
2018-08-18T11:35:47.506Z,1.47
2018-08-18T11:38:17.285Z,1.40
2018-08-18T11:40:48.093Z,1.30
2018-08-18T11:43:17.848Z,1.40
2018-08-18T11:45:46.965Z,1.32
2018-08-18T11:48:19.770Z,1.30
2018-08-18T11:50:49.830Z,1.70
2018-08-18T11:53:19.129Z,1.40
2018-08-18T11:55:48.669Z,1.50
2018-08-18T11:58:20.010Z,1.35
2018-08-18T12:00:51.433Z,1.60
2018-08-18T12:03:22.961Z,1.20
2018-08-18T12:05:56.425Z,1.55
2018-08-18T12:08:26.941Z,1.47
2018-08-18T12:10:58.342Z,1.20
2018-08-18T12:13:32.867Z,1.35
2018-08-18T12:16:10.140Z,1.27
2018-08-18T12:18:40.684Z,1.20
2018-08-18T12:21:10.223Z,1.22
2018-08-18T12:23:40.707Z,1.05
2018-08-18T12:26:12.129Z,1.30
2018-08-18T12:28:44.612Z,1.40
2018-08-18T12:31:15.507Z,1.30
2018-08-18T12:33:44.800Z,1.40
2018-08-18T12:36:14.278Z,1.40
2018-08-18T12:38:45.464Z,1.50
2018-08-18T12:41:14.668Z,1.80
2018-08-18T12:43:48.281Z,4.62
2018-08-18T12:46:19.608Z,1.30
2018-08-18T12:48:50.092Z,0.90
2018-08-18T12:51:19.988Z,1.20
2018-08-18T12:53:50.526Z,1.22
2018-08-18T12:56:22.637Z,1.12
2018-08-18T12:58:52.000Z,1.30
2018-08-18T13:01:38.031Z,1.20
2018-08-18T13:04:09.501Z,1.22
2018-08-18T13:06:47.264Z,1.27
2018-08-18T13:09:24.020Z,1.80
2018-08-18T13:11:54.259Z,1.20
2018-08-18T13:14:24.967Z,1.13
2018-08-18T13:16:54.072Z,1.50
2018-08-18T13:19:24.717Z,1.30
2018-08-18T13:21:54.053Z,1.30
2018-08-18T13:24:23.168Z,1.10
2018-08-18T13:26:52.466Z,1.20
2018-08-18T13:29:22.681Z,1.75
2018-08-18T13:31:52.021Z,1.70
2018-08-18T13:34:21.376Z,1.20
2018-08-18T13:36:50.852Z,1.40
2018-08-18T13:39:20.992Z,1.33
2018-08-18T13:41:50.885Z,1.20
2018-08-18T13:44:31.603Z,1.15
2018-08-18T13:47:00.781Z,1.20
2018-08-18T13:49:30.162Z,1.17
2018-08-18T13:51:59.402Z,1.35
2018-08-18T13:54:28.774Z,1.32
2018-08-18T13:56:58.044Z,1.30
2018-08-18T13:59:46.300Z,1.22
2018-08-18T14:02:15.606Z,1.30
2018-08-18T14:04:44.966Z,1.00
2018-08-18T14:07:14.584Z,1.20
2018-08-18T14:10:01.066Z,1.20
2018-08-18T14:12:31.253Z,1.32
2018-08-18T14:15:00.534Z,1.25
2018-08-18T14:17:29.861Z,1.40
2018-08-18T14:19:59.056Z,1.40
2018-08-18T14:22:28.142Z,1.20
2018-08-18T14:24:57.479Z,1.10
2018-08-18T14:27:26.797Z,1.25
2018-08-18T14:29:55.966Z,1.10
2018-08-18T14:32:28.680Z,1.30
2018-08-18T14:35:07.429Z,1.30
2018-08-18T14:37:40.288Z,1.40
2018-08-18T14:40:16.332Z,1.20
2018-08-18T14:42:46.592Z,1.10
2018-08-18T14:45:17.196Z,1.20
2018-08-18T14:47:47.269Z,1.10
2018-08-18T14:50:23.279Z,1.12
2018-08-18T14:52:52.696Z,1.30
2018-08-18T14:55:21.964Z,1.20
2018-08-18T14:57:56.302Z,1.17
2018-08-18T15:00:25.500Z,1.22
2018-08-18T15:02:54.760Z,1.00
2018-08-18T15:05:24.024Z,1.15
2018-08-18T15:07:55.611Z,1.57
2018-08-18T15:10:43.989Z,0.90
2018-08-18T15:13:13.700Z,2.00
2018-08-18T15:15:43.093Z,1.00
2018-08-18T15:18:13.740Z,1.25
2018-08-18T15:20:43.301Z,0.90
2018-08-18T15:23:13.380Z,1.10
2018-08-18T15:25:43.255Z,1.60
2018-08-18T15:28:14.683Z,1.32
2018-08-18T15:30:45.272Z,1.32
2018-08-18T15:33:17.871Z,1.10
2018-08-18T15:35:47.138Z,1.07
2018-08-18T15:38:16.257Z,1.00
2018-08-18T15:40:45.593Z,1.10
2018-08-18T15:43:14.884Z,1.02
2018-08-18T15:46:01.259Z,1.17
2018-08-18T15:48:30.723Z,1.30
2018-08-18T15:50:59.820Z,1.00
2018-08-18T15:53:57.701Z,1.05
2018-08-18T15:56:27.652Z,0.93
2018-08-18T15:58:57.620Z,1.10
2018-08-18T16:01:28.016Z,1.07
2018-08-18T16:03:58.093Z,1.00
2018-08-18T16:06:27.344Z,0.90
2018-08-18T16:08:57.172Z,0.98
2018-08-18T16:11:26.594Z,0.90
2018-08-18T16:13:55.849Z,0.90
2018-08-18T16:16:25.474Z,0.97
2018-08-18T16:19:02.575Z,1.07
2018-08-18T16:21:34.060Z,1.10
2018-08-18T16:24:03.439Z,1.05
2018-08-18T16:26:32.803Z,1.00
2018-08-18T16:29:01.882Z,1.10
2018-08-18T16:31:31.323Z,1.30
2018-08-18T16:34:00.613Z,1.20
2018-08-18T16:36:35.072Z,1.10
2018-08-18T16:39:04.993Z,1.12
2018-08-18T16:41:34.168Z,1.10
2018-08-18T16:44:03.597Z,1.30
2018-08-18T16:46:33.036Z,1.40
2018-08-18T16:49:02.254Z,1.17
2018-08-18T16:51:31.663Z,1.30
2018-08-18T16:54:17.028Z,1.20
2018-08-18T16:56:46.258Z,1.22
2018-08-18T16:59:15.325Z,1.30
2018-08-18T17:01:44.583Z,1.32
2018-08-18T17:04:18.274Z,1.45
2018-08-18T17:06:47.399Z,1.43
2018-08-18T17:09:27.653Z,1.40
2018-08-18T17:12:09.456Z,1.20
2018-08-18T17:14:38.661Z,1.42
2018-08-18T17:17:08.060Z,1.47
2018-08-18T17:19:38.352Z,1.60
2018-08-18T17:22:08.141Z,1.50
2018-08-18T17:24:37.319Z,1.40
2018-08-18T17:27:06.664Z,1.67
2018-08-18T17:29:40.117Z,1.67
2018-08-18T17:32:09.945Z,1.50
2018-08-18T17:34:39.467Z,1.40
2018-08-18T17:37:08.937Z,1.50
2018-08-18T17:39:38.259Z,1.40
2018-08-18T17:42:07.657Z,1.70
2018-08-18T17:44:36.817Z,1.60
2018-08-18T17:47:08.443Z,1.57
2018-08-18T17:49:46.000Z,1.42
2018-08-18T17:52:15.347Z,1.77
2018-08-18T17:54:53.954Z,1.50
2018-08-18T17:57:23.192Z,1.22
2018-08-18T17:59:52.600Z,1.55
2018-08-18T18:02:21.892Z,1.60
2018-08-18T18:04:55.196Z,1.32
2018-08-18T18:07:24.415Z,1.90
2018-08-18T18:09:53.952Z,1.57
2018-08-18T18:12:25.522Z,1.60
2018-08-18T18:14:55.240Z,1.40
2018-08-18T18:17:24.984Z,1.50
2018-08-18T18:19:56.680Z,1.70
2018-08-18T18:22:29.669Z,1.30
2018-08-18T18:24:58.933Z,1.70
2018-08-18T18:27:28.181Z,1.60
2018-08-18T18:29:57.568Z,1.67
2018-08-18T18:32:26.836Z,1.70
2018-08-18T18:34:55.894Z,1.70
2018-08-18T18:37:25.049Z,2.00
2018-08-18T18:39:58.061Z,1.80
2018-08-18T18:42:27.422Z,2.00
2018-08-18T18:44:57.429Z,2.20
2018-08-18T18:47:26.933Z,2.50
2018-08-18T18:49:56.265Z,2.30
2018-08-18T18:52:25.578Z,3.60
2018-08-18T18:54:57.348Z,2.40
2018-08-18T18:57:26.563Z,2.65
2018-08-18T18:59:58.720Z,2.60
2018-08-18T19:02:34.240Z,2.58
2018-08-18T19:05:14.029Z,2.52
2018-08-18T19:07:43.233Z,2.22
2018-08-18T19:10:12.432Z,2.45
2018-08-18T19:12:41.892Z,2.35
2018-08-18T19:15:11.272Z,2.30
2018-08-18T19:17:40.799Z,1.90
2018-08-18T19:20:20.577Z,2.37
2018-08-18T19:22:50.212Z,2.02
2018-08-18T19:25:19.376Z,2.03
2018-08-18T19:27:48.716Z,2.13
2018-08-18T19:30:17.897Z,2.00
2018-08-18T19:32:47.402Z,2.20
2018-08-18T19:35:16.760Z,2.17
2018-08-18T19:37:51.271Z,2.10
2018-08-18T19:40:21.116Z,2.50
2018-08-18T19:42:50.230Z,2.22
2018-08-18T19:45:19.404Z,2.27
2018-08-18T19:47:48.643Z,2.75
2018-08-18T19:50:18.458Z,2.40
2018-08-18T19:52:47.929Z,2.20
2018-08-18T19:55:17.360Z,2.58
2018-08-18T19:57:46.619Z,2.20
2018-08-18T20:00:20.700Z,3.12
2018-08-18T20:03:11.229Z,3.60
2018-08-18T20:05:40.532Z,3.50
2018-08-18T20:08:09.984Z,3.10
2018-08-18T20:10:45.156Z,3.10
2018-08-18T20:13:15.333Z,2.98
2018-08-18T20:15:47.063Z,3.15
2018-08-18T20:18:16.440Z,3.00
2018-08-18T20:20:45.618Z,2.87
2018-08-18T20:23:16.313Z,3.12
2018-08-18T20:25:45.994Z,3.03
2018-08-18T20:28:15.428Z,2.98
2018-08-18T20:30:44.857Z,2.80
2018-08-18T20:33:14.581Z,2.47
2018-08-18T20:35:44.007Z,2.30
2018-08-18T20:38:13.445Z,2.42
2018-08-18T20:40:42.736Z,2.08
2018-08-18T20:43:12.141Z,2.00
2018-08-18T20:45:47.855Z,2.02
2018-08-18T20:48:19.695Z,2.10
2018-08-18T20:50:49.037Z,2.20
2018-08-18T20:53:18.563Z,2.20
2018-08-18T20:55:55.048Z,2.00
2018-08-18T20:58:24.548Z,2.17
2018-08-18T21:00:53.748Z,2.05
2018-08-18T21:03:25.609Z,2.33
2018-08-18T21:05:54.745Z,2.50
2018-08-18T21:08:23.852Z,2.60
2018-08-18T21:10:53.219Z,2.45
2018-08-18T21:13:22.573Z,2.60
2018-08-18T21:15:51.723Z,2.40
2018-08-18T21:18:20.794Z,2.70
2018-08-18T21:20:50.282Z,2.87
2018-08-18T21:23:19.640Z,2.90
2018-08-18T21:25:51.513Z,3.30
2018-08-18T21:28:22.902Z,3.40
2018-08-18T21:30:52.320Z,2.92
2018-08-18T21:33:24.391Z,3.10
2018-08-18T21:35:54.008Z,3.30
2018-08-18T21:38:23.294Z,2.90
2018-08-18T21:40:52.639Z,2.50
2018-08-18T21:43:30.937Z,3.00
2018-08-18T21:46:00.265Z,2.90
2018-08-18T21:48:40.625Z,3.12
2018-08-18T21:51:10.080Z,3.10
2018-08-18T21:53:39.480Z,2.73
2018-08-18T21:56:08.679Z,2.70
2018-08-18T21:58:37.975Z,2.90
2018-08-18T22:01:12.413Z,2.70
2018-08-18T22:03:41.713Z,2.65
2018-08-18T22:06:11.184Z,2.60
2018-08-18T22:08:40.681Z,2.60
2018-08-18T22:11:13.479Z,2.70
2018-08-18T22:13:47.882Z,2.60
2018-08-18T22:16:17.368Z,2.80
2018-08-18T22:18:53.006Z,2.67
2018-08-18T22:21:26.958Z,2.45
2018-08-18T22:23:58.299Z,2.70
2018-08-18T22:26:27.683Z,2.80
2018-08-18T22:29:00.760Z,2.80
2018-08-18T22:31:30.659Z,2.70
2018-08-18T22:34:00.956Z,2.27
2018-08-18T22:36:34.529Z,2.40
2018-08-18T22:39:05.161Z,2.47
2018-08-18T22:41:34.509Z,2.50
2018-08-18T22:44:03.706Z,2.67
2018-08-18T22:46:32.924Z,2.80
2018-08-18T22:49:01.994Z,2.50
2018-08-18T22:51:31.239Z,2.65
2018-08-18T22:54:00.425Z,2.90
2018-08-18T22:56:35.460Z,2.67
2018-08-18T22:59:06.452Z,2.60
2018-08-18T23:01:36.836Z,2.50
2018-08-18T23:04:18.903Z,2.87
2018-08-18T23:06:48.332Z,2.60
2018-08-18T23:09:17.507Z,2.62
2018-08-18T23:11:46.649Z,2.50
2018-08-18T23:14:15.816Z,2.75
2018-08-18T23:16:45.296Z,2.70
2018-08-18T23:19:14.445Z,2.50
2018-08-18T23:21:43.653Z,2.60
2018-08-18T23:24:34.972Z,2.45
2018-08-18T23:27:04.497Z,2.50
2018-08-18T23:29:33.724Z,2.60
2018-08-18T23:32:16.759Z,2.75
2018-08-18T23:34:45.892Z,2.40
2018-08-18T23:37:21.527Z,2.50
2018-08-18T23:39:55.124Z,2.40
2018-08-18T23:42:25.720Z,2.90
2018-08-18T23:44:55.136Z,2.47
2018-08-18T23:47:24.404Z,2.33
2018-08-18T23:49:53.746Z,2.75
2018-08-18T23:52:22.912Z,2.80
2018-08-18T23:54:52.244Z,2.80
2018-08-18T23:57:21.547Z,3.00
2018-08-18T23:59:51.504Z,2.87
